Wednesday, May 23, 2018, 5:19 AM GMT
Back to Local

CYGK, Kingston, Ont.

Location: , , Canada Lat: 44.217
Local Time: 5:19 AM GMT ( 5:19 GMT) Lon: -76.6
Time Zone: GMT Elev: 305 ft

Show me the last for .
Show Decoded

2018-05-23 03:00 METAR CYGK 230300Z 28004KT 15SM FEW025 FEW140 12/12 A2991 RMK SC1AC1 LAST STFD
                 OBS/NEXT 231000 UTC SLP131 =
2018-05-23 02:00 METAR CYGK 230200Z 00000KT 15SM FEW010 SCT025 BKN090 15/14 A2990 RMK CF1SC3AC2
                 CF TR SLP128 DENSITY ALT 400FT =
2018-05-23 01:00 METAR CYGK 230100Z 31004KT 15SM FEW010 BKN027 15/14 A2989 RMK SF1SC6 SLP123
                 DENSITY ALT 400FT =
2018-05-23 00:00 METAR CYGK 230000Z 35006KT 15SM FEW008 BKN018 BKN100 15/14 A2987 RMK SF1SC5AC1
                 SF TR SLP119 DENSITY ALT 400FT =
2018-05-22 23:00 METAR CYGK 222300Z 35005KT 10SM SCT005 OVC010 15/14 A2988 RMK SF3SC5 SLP120
                 DENSITY ALT 400FT =
2018-05-22 22:00 METAR CYGK 222200Z 05004KT 3SM BR OVC005 15/14 A2987 RMK SF8 VIS S-SW 1 CIG RAG
                 SLP119 DENSITY ALT 400FT =
2018-05-22 21:12 METAR CYGK 222112Z 05003KT 2 1/2SM BR OVC004 15/14 A2988 RMK SF8 CIG RAG SLP121
                 DENSITY ALT 400FT =
2018-05-22 21:00 METAR CYGK 222100Z 08004KT 1 1/2SM -DZ BR BKN004 OVC008 15/14 A2988 RMK SF5ST3
                 CIG RAG SLP122 DENSITY ALT 400FT =
2018-05-22 20:20 METAR CYGK 222020Z 05003KT 1 1/2SM -DZ BR BKN004 OVC008 15/14 A2990 RMK
                 FG1SF4SF3 SLP126 DENSITY ALT 400FT =
2018-05-22 20:00 METAR CYGK 222000Z 07003KT 1 1/2SM -DZ BR SCT003 OVC006 15/14 A2990 RMK SF3SF5
                 SLP128 DENSITY ALT 400FT =
2018-05-22 19:41 METAR CYGK 221941Z 08004KT 1 1/2SM -DZ BR FEW003 OVC009 14/14 A2991 RMK SF2SF6
                 SLP130 DENSITY ALT 400FT =
2018-05-22 19:00 METAR CYGK 221900Z 07006KT 1 1/2SM -RA BR BKN004 OVC011 14/14 A2992 RMK SF5NS3
                 SLP135 =
2018-05-22 18:00 METAR CYGK 221800Z 08007KT 1 3/4SM -RA BR BKN004 OVC010 14/14 A2995 RMK
                 FG2SF3NS3 SLP143 =
2018-05-22 17:38 METAR CYGK 221738Z 07008KT 2SM -RA BR BKN004 OVC010 14/14 A2996 RMK SF6SC2
                 SLP147 =
2018-05-22 17:00 METAR CYGK 221700Z 10007KT 2SM -RA BR FEW005 OVC010 14/13 A2997 RMK SF2SC6
                 SLP153 =
2018-05-22 16:51 METAR CYGK 221651Z 09008KT 2SM -SHRA BR FEW006 OVC013 14/13 A2998 RMK SF1SC7
                 SLP155 =
2018-05-22 16:09 METAR CYGK 221609Z 09009KT 3SM -SHRA BR OVC018 15/13 A2999 RMK SC8 SLP158 =
2018-05-22 16:00 METAR CYGK 221600Z 09007KT 6SM -SHRA BR OVC021 14/12 A3000 RMK SC8 CVCTV CLD
                 EMBD SLP162 =
2018-05-22 15:00 METAR CYGK 221500Z 12004KT 090V150 15SM -SHRA OVC053 13/12 A3004 RMK SC8 CVCTV
                 CLD ASOCTD SLP174 =
2018-05-22 14:00 METAR CYGK 221400Z 20006KT 8SM -SHRA OVC065 13/11 A3007 RMK SC8 SLP184 =
2018-05-22 13:00 METAR CYGK 221300Z 23005KT 15SM -SHRA FEW045 OVC080 13/09 A3008 RMK CU1AC7
                 SLP188 =
2018-05-22 12:00 METAR CYGK 221200Z VRB02KT 15SM -SHRA FEW080 OVC100 13/10 A3004 RMK ACC2AC6
                 SLP176 =
2018-05-22 11:52 METAR CYGK 221152Z 05002KT 15SM -RA OVC100 13/10 A3004 RMK AC8 SLP176 =
2018-05-22 11:00 METAR CYGK 221100Z 04003KT 040V120 15SM OVC100 12/09 A3004 RMK AC8 SLP175 =
2018-05-22 10:00 METAR CYGK 221000Z 05005KT 15SM OVC110 13/06 A3003 RMK AC8 SLP173 =

Support USWX by starting your Amazon purchase here.